Time;durP1;ratioP1;P1;durP2;ratioP2;P2;SDS_P1;SDS_P2;PMS_P1;PMS_P2;Temp;Humidity;BMP_temperature;BMP_pressure;BME280_temperature;BME280_humidity;BME280_pressure;Samples;Min_cycle;Max_cycle;Signal;HPM_P1;HPM_P2
2022/08/21 00:00:24;;;;;;;4.43;3.00;;;;;;;15.19;100.00;98265.25;4941686;29;20232;-67
2022/08/21 00:02:54;;;;;;;3.53;3.13;;;;;;;15.08;100.00;98254.66;4941777;29;20235;-67
2022/08/21 00:05:21;;;;;;;4.07;3.17;;;;;;;15.02;100.00;98255.22;4941758;29;20689;-66
2022/08/21 00:07:48;;;;;;;3.40;2.87;;;;;;;14.93;100.00;98254.16;4941650;29;20279;-66
2022/08/21 00:10:16;;;;;;;3.10;2.73;;;;;;;14.89;100.00;98251.88;4934034;29;20228;-66
2022/08/21 00:12:45;;;;;;;4.47;3.03;;;;;;;14.85;100.00;98251.28;4941531;29;20490;-66
2022/08/21 00:15:14;;;;;;;3.80;3.03;;;;;;;14.88;100.00;98252.84;4941386;29;20258;-67
2022/08/21 00:17:41;;;;;;;3.33;3.03;;;;;;;14.89;100.00;98246.56;4941551;29;20287;-67
2022/08/21 00:20:11;;;;;;;3.37;3.00;;;;;;;14.92;100.00;98246.31;4936215;29;20286;-67
2022/08/21 00:22:38;;;;;;;4.40;3.13;;;;;;;14.93;100.00;98245.34;4939755;29;20231;-66
2022/08/21 00:25:06;;;;;;;3.40;3.10;;;;;;;14.92;100.00;98243.66;4941351;29;20273;-66
2022/08/21 00:27:33;;;;;;;3.00;2.70;;;;;;;14.95;100.00;98246.88;4941300;29;20315;-66
2022/08/21 00:30:02;;;;;;;4.03;2.97;;;;;;;14.90;100.00;98248.28;4941410;29;20297;-66
2022/08/21 00:32:28;;;;;;;4.10;3.20;;;;;;;14.84;100.00;98243.47;4941208;29;20232;-66
2022/08/21 00:34:55;;;;;;;3.93;3.03;;;;;;;14.87;100.00;98253.84;4941110;29;20586;-66
2022/08/21 00:37:22;;;;;;;3.97;2.90;;;;;;;14.89;100.00;98249.22;4941138;29;20235;-66
2022/08/21 00:39:49;;;;;;;4.10;3.10;;;;;;;14.87;100.00;98248.50;4941255;29;20584;-66
2022/08/21 00:42:16;;;;;;;3.57;3.10;;;;;;;14.90;100.00;98249.09;4941062;29;20538;-66
2022/08/21 00:44:43;;;;;;;5.00;3.30;;;;;;;14.88;100.00;98245.72;4941058;29;20232;-65
2022/08/21 00:47:12;;;;;;;5.07;3.23;;;;;;;14.91;100.00;98244.63;4939201;29;20535;-66
2022/08/21 00:49:40;;;;;;;4.03;3.17;;;;;;;14.92;100.00;98241.00;4940995;29;20232;-66
2022/08/21 00:52:10;;;;;;;4.10;3.10;;;;;;;14.92;100.00;98246.31;4940867;29;20712;-66
2022/08/21 00:54:39;;;;;;;3.17;2.87;;;;;;;14.87;100.00;98244.03;4940713;29;20327;-66
2022/08/21 00:57:11;;;;;;;3.43;3.13;;;;;;;14.78;100.00;98243.97;4940251;29;20251;-65
2022/08/21 00:59:41;;;;;;;4.00;3.07;;;;;;;14.67;100.00;98241.38;4940737;29;20263;-65
2022/08/21 01:02:10;;;;;;;4.40;3.20;;;;;;;14.63;100.00;98240.78;4940678;29;20282;-65
2022/08/21 01:04:38;;;;;;;3.30;2.97;;;;;;;14.64;100.00;98236.28;4940702;29;20231;-66
2022/08/21 01:07:06;;;;;;;3.63;3.07;;;;;;;14.62;100.00;98238.25;4940549;29;20235;-66
2022/08/21 01:09:33;;;;;;;4.53;3.20;;;;;;;14.65;100.00;98237.97;4940536;29;20294;-66
2022/08/21 01:12:00;;;;;;;4.73;3.07;;;;;;;14.65;100.00;98228.19;4940477;29;20308;-66
2022/08/21 01:14:28;;;;;;;3.50;3.13;;;;;;;14.70;100.00;98241.09;4938720;29;20298;-66
2022/08/21 01:16:57;;;;;;;4.20;3.10;;;;;;;14.66;100.00;98234.38;4940538;29;20294;-66
2022/08/21 01:19:25;;;;;;;4.03;2.97;;;;;;;14.67;100.00;98236.88;4937819;29;20267;-66
2022/08/21 01:21:54;;;;;;;4.67;3.10;;;;;;;14.64;100.00;98236.28;4940415;29;20270;-65
2022/08/21 01:24:21;;;;;;;4.93;3.37;;;;;;;14.63;100.00;98235.47;4935559;29;20279;-66
2022/08/21 01:26:49;;;;;;;4.03;3.53;;;;;;;14.63;100.00;98234.59;4940223;29;20292;-66
2022/08/21 01:29:23;;;;;;;3.93;2.90;;;;;;;14.60;100.00;98234.88;4940106;29;20274;-66
2022/08/21 01:31:50;;;;;;;4.60;2.80;;;;;;;14.62;100.00;98238.25;4940000;29;20290;-66
2022/08/21 01:34:17;;;;;;;4.13;3.67;;;;;;;14.61;100.00;98234.72;4940125;29;20229;-66
2022/08/21 01:36:45;;;;;;;3.17;2.83;;;;;;;14.61;100.00;98233.91;4939987;29;20303;-66
2022/08/21 01:39:14;;;;;;;3.30;3.00;;;;;;;14.56;100.00;98236.09;4938162;29;20238;-67
2022/08/21 01:41:41;;;;;;;4.97;3.20;;;;;;;14.53;100.00;98228.34;4940042;29;20241;-66
2022/08/21 01:44:08;;;;;;;4.23;3.30;;;;;;;14.46;100.00;98238.69;4940013;29;20285;-66
2022/08/21 01:46:36;;;;;;;3.20;2.90;;;;;;;14.38;100.00;98230.50;4939959;29;20498;-66
2022/08/21 01:49:03;;;;;;;3.53;3.10;;;;;;;14.37;100.00;98222.66;4939937;29;20686;-66
2022/08/21 01:51:30;;;;;;;4.30;3.40;;;;;;;14.33;100.00;98231.84;4939888;29;20232;-66
2022/08/21 01:53:56;;;;;;;4.17;3.53;;;;;;;14.28;100.00;98228.72;4939826;29;20650;-66
2022/08/21 01:56:27;;;;;;;3.47;3.00;;;;;;;14.20;100.00;98231.16;4939674;29;20314;-66
2022/08/21 01:58:54;;;;;;;3.47;3.17;;;;;;;14.07;100.00;98215.34;4939678;29;20485;-66
2022/08/21 02:01:21;;;;;;;5.13;3.37;;;;;;;14.02;100.00;98222.00;4939766;29;20232;-66
2022/08/21 02:03:47;;;;;;;4.10;3.60;;;;;;;13.96;100.00;98217.19;4939670;29;20656;-66
2022/08/21 02:06:17;;;;;;;4.57;3.30;;;;;;;13.93;100.00;98220.09;4937956;29;20314;-66
2022/08/21 02:08:44;;;;;;;4.37;3.50;;;;;;;13.90;100.00;98215.03;4938965;29;20510;-66
2022/08/21 02:11:11;;;;;;;5.80;3.70;;;;;;;13.88;100.00;98214.31;4939491;29;20271;-66
2022/08/21 02:13:39;;;;;;;3.87;3.47;;;;;;;13.89;100.00;98213.34;4939423;29;20282;-66
2022/08/21 02:16:07;;;;;;;5.30;3.57;;;;;;;13.87;100.00;98218.78;4929282;29;20548;-66
2022/08/21 02:18:34;;;;;;;7.57;4.37;;;;;;;13.82;100.00;98212.16;4937085;29;20233;-66
2022/08/21 02:21:02;;;;;;;4.37;3.53;;;;;;;13.73;100.00;98213.75;4937060;29;20262;-66
2022/08/21 02:23:28;;;;;;;4.30;3.57;;;;;;;13.70;100.00;98210.47;4939351;29;20675;-66
2022/08/21 02:25:55;;;;;;;6.23;4.00;;;;;;;13.67;100.00;98200.09;4939290;29;20267;-66
2022/08/21 02:28:22;;;;;;;4.57;3.70;;;;;;;13.63;100.00;98203.97;4939378;29;20234;-66
2022/08/21 02:30:52;;;;;;;4.00;3.60;;;;;;;13.57;100.00;98210.59;4938743;29;20659;-66
2022/08/21 02:33:20;;;;;;;4.93;4.20;;;;;;;13.60;100.00;98210.38;4938686;29;20303;-66
2022/08/21 02:35:48;;;;;;;4.60;4.10;;;;;;;13.59;100.00;98202.53;4929141;29;20352;-66
2022/08/21 02:38:18;;;;;;;4.40;4.00;;;;;;;13.59;100.00;98202.53;4939198;29;20234;-66
2022/08/21 02:40:47;;;;;;;5.40;4.80;;;;;;;13.59;100.00;98205.19;4939331;29;20286;-66
2022/08/21 02:43:16;;;;;;;4.83;3.97;;;;;;;13.62;100.00;98199.66;4939178;29;20727;-67
2022/08/21 02:45:44;;;;;;;6.60;4.77;;;;;;;13.56;100.00;98202.78;4939212;29;20235;-67
2022/08/21 02:48:15;;;;;;;4.60;4.20;;;;;;;13.53;100.00;98197.72;4939279;29;20317;-66
2022/08/21 02:50:47;;;;;;;5.07;4.57;;;;;;;13.51;100.00;98194.34;4939218;29;20282;-66
2022/08/21 02:53:16;;;;;;;5.10;4.60;;;;;;;13.47;100.00;98200.84;4939319;29;20276;-66
2022/08/21 02:55:44;;;;;;;5.97;4.50;;;;;;;13.50;100.00;98203.28;4939270;29;20281;-66
2022/08/21 02:58:13;;;;;;;4.97;4.40;;;;;;;13.50;100.00;98203.28;4937574;29;20231;-66
2022/08/21 03:00:40;;;;;;;4.70;4.20;;;;;;;13.53;100.00;98200.38;4939282;29;20337;-66
2022/08/21 03:03:07;;;;;;;5.67;4.70;;;;;;;13.53;100.00;98203.88;4939061;29;20283;-66
2022/08/21 03:05:37;;;;;;;5.27;4.53;;;;;;;13.51;100.00;98200.47;4939235;29;20262;-66
2022/08/21 03:08:09;;;;;;;7.23;4.83;;;;;;;13.52;100.00;98196.03;4939152;29;20333;-66
2022/08/21 03:10:36;;;;;;;5.33;4.20;;;;;;;13.52;100.00;98196.03;4934495;29;20233;-66
2022/08/21 03:13:03;;;;;;;5.13;4.40;;;;;;;13.53;100.00;98193.25;4939023;29;20235;-66
2022/08/21 03:15:31;;;;;;;4.67;4.27;;;;;;;13.52;100.00;98190.72;4939047;29;20319;-66
2022/08/21 03:17:58;;;;;;;5.53;4.83;;;;;;;13.52;100.00;98191.53;4938982;29;20228;-66
2022/08/21 03:20:28;;;;;;;7.10;4.67;;;;;;;13.47;100.00;98196.41;4937408;29;20249;-66
2022/08/21 03:22:56;;;;;;;5.87;4.60;;;;;;;13.37;100.00;98198.09;4941656;29;20271;-67
2022/08/21 03:25:25;;;;;;;5.40;4.80;;;;;;;13.34;100.00;98198.34;4942004;29;20266;-66
2022/08/21 03:27:52;;;;;;;6.27;4.87;;;;;;;13.33;100.00;98190.50;4942413;29;20227;-66
2022/08/21 03:30:21;;;;;;;7.47;5.00;;;;;;;13.30;100.00;98206.66;4942439;29;20640;-66
2022/08/21 03:32:48;;;;;;;6.60;5.03;;;;;;;13.27;100.00;98198.94;4932201;29;20589;-66
2022/08/21 03:35:15;;;;;;;6.93;4.73;;;;;;;13.24;100.00;98205.34;4934809;29;20233;-66
2022/08/21 03:37:42;;;;;;;5.17;4.67;;;;;;;13.20;100.00;98203.03;4942535;29;20609;-66
2022/08/21 03:40:12;;;;;;;6.33;4.70;;;;;;;13.13;100.00;98204.47;4942304;29;20272;-66
2022/08/21 03:42:39;;;;;;;5.60;4.63;;;;;;;13.12;100.00;98206.28;4932260;29;20297;-66
2022/08/21 03:45:07;;;;;;;9.57;5.47;;;;;;;13.10;100.00;98202.06;4942097;29;20585;-67
2022/08/21 03:47:34;;;;;;;5.43;4.50;;;;;;;13.06;100.00;98197.94;4941979;29;20668;-66
2022/08/21 03:50:01;;;;;;;7.90;5.40;;;;;;;13.05;100.00;98201.56;4940487;29;20264;-66
2022/08/21 03:52:28;;;;;;;5.53;4.60;;;;;;;13.07;100.00;98197.00;4931831;29;20279;-66
2022/08/21 03:54:55;;;;;;;5.40;4.83;;;;;;;13.06;100.00;98203.25;4942010;29;20321;-66
2022/08/21 03:57:23;;;;;;;6.80;5.80;;;;;;;13.04;100.00;98199.88;4941795;29;20249;-66
2022/08/21 03:59:49;;;;;;;5.60;4.97;;;;;;;13.06;100.00;98203.25;4941725;29;20645;-66
2022/08/21 04:02:19;;;;;;;6.67;4.83;;;;;;;13.03;100.00;98206.16;4941735;29;20272;-66
2022/08/21 04:04:45;;;;;;;5.53;4.93;;;;;;;13.04;100.00;98211.34;4941753;29;20276;-66
2022/08/21 04:07:12;;;;;;;5.90;5.30;;;;;;;13.00;100.00;98209.03;4941643;29;20230;-66
2022/08/21 04:09:39;;;;;;;6.33;4.97;;;;;;;13.03;100.00;98209.66;4941738;29;20229;-66
2022/08/21 04:12:06;;;;;;;5.60;4.77;;;;;;;13.05;100.00;98215.69;4941505;29;20588;-66
2022/08/21 04:14:34;;;;;;;6.63;5.23;;;;;;;13.02;100.00;98207.13;4941559;29;20263;-66
2022/08/21 04:17:01;;;;;;;5.67;4.33;;;;;;;13.02;100.00;98212.44;4939797;29;20287;-66
2022/08/21 04:19:28;;;;;;;5.97;4.47;;;;;;;13.03;100.00;98209.66;4936738;29;20229;-66
2022/08/21 04:21:54;;;;;;;6.43;5.60;;;;;;;13.09;100.00;98219.78;4941032;29;20230;-66
2022/08/21 04:24:21;;;;;;;5.30;4.80;;;;;;;13.10;100.00;98218.00;4941329;29;20289;-66
2022/08/21 04:26:48;;;;;;;6.33;4.77;;;;;;;13.13;100.00;98225.69;4941263;29;20226;-66
2022/08/21 04:29:14;;;;;;;4.53;4.13;;;;;;;13.15;100.00;98224.63;4933543;29;20230;-66
2022/08/21 04:31:43;;;;;;;5.33;4.77;;;;;;;13.18;100.00;98220.88;4940753;29;20237;-66
2022/08/21 04:34:10;;;;;;;7.80;5.20;;;;;;;13.23;100.00;98227.53;4941197;29;20331;-66
2022/08/21 04:36:37;;;;;;;5.93;4.70;;;;;;;13.25;100.00;98230.03;4941078;29;20249;-66
2022/08/21 04:39:04;;;;;;;6.77;5.07;;;;;;;13.26;100.00;98237.91;4941169;29;20232;-66
2022/08/21 04:41:31;;;;;;;5.70;4.90;;;;;;;13.31;100.00;98240.19;4939409;29;20298;-66
2022/08/21 04:43:59;;;;;;;5.00;4.50;;;;;;;13.34;100.00;98242.63;4941224;29;20275;-66
2022/08/21 04:46:25;;;;;;;6.53;5.23;;;;;;;13.38;100.00;98241.41;4941074;29;20534;-66
2022/08/21 04:48:54;;;;;;;5.33;4.73;;;;;;;13.43;100.00;98256.00;4941063;29;20260;-66
2022/08/21 04:51:25;;;;;;;7.07;4.70;;;;;;;13.48;100.00;98248.53;4940856;29;20287;-66
2022/08/21 04:53:55;;;;;;;4.93;4.43;;;;;;;13.51;100.00;98242.97;4940859;29;20229;-66
2022/08/21 04:56:24;;;;;;;4.87;4.43;;;;;;;13.56;100.00;98242.63;4941014;29;20523;-66
2022/08/21 04:58:53;;;;;;;4.90;4.33;;;;;;;13.63;100.00;98249.97;4940853;29;20710;-66
2022/08/21 05:01:23;;;;;;;8.13;5.40;;;;;;;13.69;100.00;98243.34;4930881;29;20234;-66
2022/08/21 05:03:55;;;;;;;5.53;4.27;;;;;;;13.73;100.00;98252.72;4940702;29;20547;-66
2022/08/21 05:06:22;;;;;;;6.53;4.33;;;;;;;13.80;100.00;98253.91;4940622;29;20504;-66
2022/08/21 05:08:52;;;;;;;5.20;4.70;;;;;;;13.86;100.00;98258.75;4938907;29;20232;-66
2022/08/21 05:11:19;;;;;;;4.30;3.90;;;;;;;13.91;100.00;98245.94;4940604;29;20291;-66
2022/08/21 05:13:46;;;;;;;6.37;4.00;;;;;;;13.97;100.00;98256.06;4940576;29;20303;-66
2022/08/21 05:16:12;;;;;;;5.43;4.40;;;;;;;14.06;100.00;98250.03;4940483;29;20316;-66
2022/08/21 05:18:39;;;;;;;5.43;4.87;;;;;;;14.08;100.00;98258.72;4938450;29;20235;-66
2022/08/21 05:21:07;;;;;;;4.80;4.40;;;;;;;14.13;100.00;98261.84;4940365;29;20232;-66
2022/08/21 05:23:34;;;;;;;5.50;4.53;;;;;;;14.21;100.00;98270.06;4940415;29;20310;-66
2022/08/21 05:26:01;;;;;;;4.83;4.30;;;;;;;14.28;100.00;98271.25;4940278;29;20488;-66
2022/08/21 05:28:27;;;;;;;6.10;4.67;;;;;;;14.41;100.00;98274.59;4940148;29;20553;-66
2022/08/21 05:30:54;;;;;;;4.90;4.50;;;;;;;14.48;100.00;98275.78;4940187;29;20657;-66
2022/08/21 05:33:21;;;;;;;5.93;5.00;;;;;;;14.58;100.00;98274.03;4938414;29;20269;-66
2022/08/21 05:35:51;;;;;;;6.73;5.17;;;;;;;14.68;100.00;98277.63;4940203;29;20705;-66
2022/08/21 05:38:19;;;;;;;5.03;4.53;;;;;;;14.77;100.00;98284.84;4940030;29;20314;-66
2022/08/21 05:40:46;;;;;;;4.93;4.53;;;;;;;14.87;100.00;98277.78;4940164;29;20313;-66
2022/08/21 05:43:12;;;;;;;5.63;4.90;;;;;;;14.96;100.00;98271.69;4940083;29;20369;-66
2022/08/21 05:45:39;;;;;;;5.30;4.63;;;;;;;15.06;100.00;98284.09;4940025;29;20294;-66
2022/08/21 05:48:07;;;;;;;5.57;4.93;;;;;;;15.18;100.00;98274.22;4939983;29;20244;-66
2022/08/21 05:50:35;;;;;;;5.23;4.67;;;;;;;15.26;100.00;98277.91;4939988;29;20689;-66
2022/08/21 05:53:01;;;;;;;5.77;5.17;;;;;;;15.31;100.00;98282.84;4939914;29;20317;-66
2022/08/21 05:55:30;;;;;;;5.27;4.77;;;;;;;15.41;100.00;98289.09;4939808;29;20595;-66
2022/08/21 05:57:57;;;;;;;4.73;4.07;;;;;;;15.56;100.00;98288.63;4939606;29;20250;-66
2022/08/21 06:00:23;;;;;;;4.53;4.13;;;;;;;16.03;100.00;98286.13;4937610;29;20231;-66
2022/08/21 06:02:50;;;;;;;4.87;4.33;;;;;;;16.70;100.00;98281.78;4937829;29;20239;-66
2022/08/21 06:05:18;;;;;;;4.47;4.07;;;;;;;17.38;100.00;98284.25;4938355;29;20234;-67
2022/08/21 06:07:45;;;;;;;5.07;4.23;;;;;;;17.97;100.00;98292.78;4938349;29;20236;-67
2022/08/21 06:10:11;;;;;;;4.40;3.63;;;;;;;18.54;100.00;98292.47;4938201;29;20283;-67
2022/08/21 06:12:40;;;;;;;5.70;3.73;;;;;;;19.23;96.86;98292.63;4938350;29;20232;-66
2022/08/21 06:15:07;;;;;;;3.70;3.33;;;;;;;20.02;92.17;98297.66;4938359;29;20335;-66
2022/08/21 06:17:34;;;;;;;4.97;3.50;;;;;;;20.67;85.64;98299.59;4938262;29;20327;-67
2022/08/21 06:20:01;;;;;;;4.27;3.10;;;;;;;21.18;82.02;98296.66;4932862;29;20285;-67
2022/08/21 06:22:28;;;;;;;5.40;3.43;;;;;;;21.44;78.34;98302.69;4938361;29;20292;-66
2022/08/21 06:24:55;;;;;;;3.87;3.57;;;;;;;21.39;77.95;98304.22;4938260;29;20308;-66
2022/08/21 06:27:21;;;;;;;4.57;2.97;;;;;;;20.91;80.10;98306.91;4936408;29;20580;-66
2022/08/21 06:29:49;;;;;;;8.13;3.50;;;;;;;20.05;84.81;98304.56;4932804;29;20240;-66
2022/08/21 06:32:16;;;;;;;3.20;2.90;;;;;;;19.35;89.00;98310.16;4938135;29;20232;-66
2022/08/21 06:34:43;;;;;;;3.10;2.80;;;;;;;18.90;91.62;98304.88;4938003;29;20358;-66
2022/08/21 06:37:09;;;;;;;4.73;3.60;;;;;;;18.64;93.63;98303.09;4937847;29;20303;-66
2022/08/21 06:39:37;;;;;;;3.80;3.50;;;;;;;18.46;95.13;98305.75;4938006;29;20263;-66
2022/08/21 06:42:04;;;;;;;3.50;3.20;;;;;;;18.37;96.30;98295.13;4936528;29;20232;-66
2022/08/21 06:44:31;;;;;;;4.20;3.80;;;;;;;18.34;96.64;98292.75;4936051;29;20232;-66
2022/08/21 06:46:59;;;;;;;4.23;3.70;;;;;;;18.30;95.64;98297.50;4936718;29;20231;-66
2022/08/21 06:49:26;;;;;;;4.13;3.73;;;;;;;18.31;96.29;98291.22;4937046;29;20374;-67
2022/08/21 06:51:52;;;;;;;6.73;3.67;;;;;;;18.31;97.51;98291.22;4930095;29;20520;-66
2022/08/21 06:54:19;;;;;;;3.83;3.47;;;;;;;18.40;98.37;98295.66;4932260;29;20335;-65
2022/08/21 06:56:46;;;;;;;4.47;3.40;;;;;;;18.48;99.19;98286.88;4937202;29;20228;-65
2022/08/21 06:59:12;;;;;;;4.43;3.50;;;;;;;18.53;98.59;98290.78;4940147;29;20295;-66
2022/08/21 07:01:40;;;;;;;4.00;3.37;;;;;;;18.64;98.09;98287.88;4940047;29;20630;-66
2022/08/21 07:04:08;;;;;;;5.07;3.10;;;;;;;18.72;97.40;98290.63;4939773;29;20601;-65
2022/08/21 07:06:35;;;;;;;4.97;3.80;;;;;;;18.78;95.29;98290.03;4939349;29;20292;-65
2022/08/21 07:09:03;;;;;;;5.30;3.63;;;;;;;18.88;94.63;98282.75;4939977;29;20581;-66
2022/08/21 07:11:29;;;;;;;3.87;3.47;;;;;;;18.95;91.56;98283.00;4939997;29;20660;-65
2022/08/21 07:13:58;;;;;;;4.90;3.50;;;;;;;19.03;89.04;98283.88;4939533;29;20788;-64
2022/08/21 07:16:25;;;;;;;4.13;3.43;;;;;;;19.12;88.08;98282.97;4939223;29;20285;-65
2022/08/21 07:18:51;;;;;;;4.07;2.93;;;;;;;19.24;87.51;98279.09;4937996;29;20303;-65
2022/08/21 07:21:19;;;;;;;4.53;3.03;;;;;;;19.37;88.36;98282.19;4932514;29;20232;-65
2022/08/21 07:23:49;;;;;;;4.87;3.17;;;;;;;19.48;86.91;98278.41;4937622;29;20642;-65
2022/08/21 07:26:20;;;;;;;3.63;3.30;;;;;;;19.58;86.57;98279.97;4939227;29;20249;-65
2022/08/21 07:28:47;;;;;;;4.93;3.63;;;;;;;19.71;86.50;98284.91;4939805;29;20236;-65
2022/08/21 07:31:15;;;;;;;5.23;3.40;;;;;;;19.79;84.88;98283.13;4939704;29;20251;-65
2022/08/21 07:33:42;;;;;;;4.17;3.07;;;;;;;19.89;82.81;98286.53;4938552;29;20238;-65
2022/08/21 07:36:10;;;;;;;3.87;3.40;;;;;;;19.99;79.13;98284.56;4939532;29;20638;-65
2022/08/21 07:38:38;;;;;;;5.20;3.33;;;;;;;20.02;76.83;98278.03;4939044;29;20326;-64
2022/08/21 07:41:21;;;;;;;4.40;3.20;;;;;;;20.20;74.99;98285.03;4939631;29;20266;-65
2022/08/21 07:43:48;;;;;;;5.27;3.60;;;;;;;20.22;76.39;98280.34;4938040;29;20237;-65
2022/08/21 07:46:15;;;;;;;5.63;3.20;;;;;;;20.22;72.41;98276.78;4938057;29;20369;-65
2022/08/21 07:48:42;;;;;;;5.27;3.63;;;;;;;20.26;73.72;98281.69;4939367;29;20268;-65
2022/08/21 07:51:11;;;;;;;5.43;3.60;;;;;;;20.35;75.75;98280.72;4939378;29;20267;-65
2022/08/21 07:53:40;;;;;;;3.53;3.10;;;;;;;20.29;75.23;98276.00;4937731;29;20233;-65
2022/08/21 07:56:08;;;;;;;4.80;3.40;;;;;;;20.36;76.96;98277.03;4939035;29;20283;-64
2022/08/21 07:58:35;;;;;;;6.50;3.33;;;;;;;20.46;76.68;98272.34;4938994;29;20263;-64
2022/08/21 08:01:02;;;;;;;7.00;4.07;;;;;;;20.59;77.04;98269.19;4938965;29;20269;-65
2022/08/21 08:03:28;;;;;;;5.27;4.00;;;;;;;20.61;70.72;98264.50;4937571;29;20232;-65
2022/08/21 08:05:55;;;;;;;5.53;4.07;;;;;;;20.65;69.68;98260.47;4939025;29;20642;-66
2022/08/21 08:08:22;;;;;;;6.27;3.83;;;;;;;20.66;69.29;98271.03;4937872;29;20290;-65
2022/08/21 08:10:51;;;;;;;6.10;4.33;;;;;;;20.79;69.25;98268.72;4937206;29;20614;-65
2022/08/21 08:13:18;;;;;;;6.47;4.10;;;;;;;20.85;67.48;98268.03;4935643;29;20292;-65
2022/08/21 08:15:44;;;;;;;5.20;4.10;;;;;;;20.90;67.40;98257.69;4938797;29;20228;-65
2022/08/21 08:18:11;;;;;;;4.20;3.80;;;;;;;21.01;66.97;98257.34;4938520;29;20250;-65
2022/08/21 08:20:38;;;;;;;4.40;3.70;;;;;;;21.11;69.13;98263.41;4931142;29;20491;-65
2022/08/21 08:23:04;;;;;;;5.40;3.33;;;;;;;21.27;70.63;98258.00;4938028;29;20545;-66
2022/08/21 08:25:31;;;;;;;3.50;3.13;;;;;;;21.36;66.53;98262.38;4938746;29;20236;-65
2022/08/21 08:27:59;;;;;;;5.20;4.37;;;;;;;21.54;64.91;98257.66;4938476;29;20670;-65
2022/08/21 08:30:26;;;;;;;5.17;3.90;;;;;;;21.59;67.51;98257.13;4938437;29;20263;-64
2022/08/21 08:32:52;;;;;;;4.40;3.90;;;;;;;21.69;69.12;98253.25;4937074;29;20295;-64
2022/08/21 08:35:19;;;;;;;6.27;4.13;;;;;;;21.76;67.79;98250.72;4938584;29;20283;-64
2022/08/21 08:37:46;;;;;;;6.33;4.00;;;;;;;21.82;67.30;98250.88;4936619;29;20252;-66
2022/08/21 08:40:19;;;;;;;5.87;3.73;;;;;;;21.86;65.94;98249.50;4938424;29;20696;-66
2022/08/21 08:42:47;;;;;;;6.23;4.20;;;;;;;21.88;64.32;98247.47;4937006;29;20485;-66
2022/08/21 08:45:18;;;;;;;5.23;4.00;;;;;;;21.92;65.07;98238.06;4938367;29;20408;-66
2022/08/21 08:47:48;;;;;;;5.33;3.60;;;;;;;22.05;66.86;98238.34;4938213;29;20228;-66
2022/08/21 08:50:21;;;;;;;4.83;3.47;;;;;;;22.17;64.94;98241.47;4938190;29;20257;-66
2022/08/21 08:52:52;;;;;;;4.60;4.07;;;;;;;22.27;65.57;98232.19;4937472;29;20236;-66
2022/08/21 08:55:24;;;;;;;6.27;4.20;;;;;;;22.31;64.60;98233.47;4938055;29;20600;-66
2022/08/21 08:57:52;;;;;;;4.53;3.70;;;;;;;22.45;61.07;98229.25;4929731;29;20249;-67
2022/08/21 09:00:22;;;;;;;4.37;3.83;;;;;;;22.46;60.30;98225.53;4937829;29;20227;-67
2022/08/21 09:02:53;;;;;;;5.80;3.63;;;;;;;22.55;62.92;98230.69;4938049;29;20279;-66
2022/08/21 09:05:25;;;;;;;4.93;3.60;;;;;;;22.65;61.57;98225.06;4936594;29;20228;-65
2022/08/21 09:08:10;;;;;;;5.73;3.97;;;;;;;22.72;60.94;98220.63;4937915;29;20264;-65
2022/08/21 09:10:47;;;;;;;5.67;4.20;;;;;;;22.80;60.02;98228.66;4930629;29;20239;-66
2022/08/21 09:13:21;;;;;;;6.03;3.90;;;;;;;22.80;59.27;98228.66;4934007;29;20287;-66
2022/08/21 09:15:58;;;;;;;5.47;4.00;;;;;;;22.78;59.35;98226.16;4937763;29;20273;-66
2022/08/21 09:18:36;;;;;;;5.57;4.13;;;;;;;22.88;60.60;98221.38;4936280;29;20647;-66
2022/08/21 09:21:12;;;;;;;7.93;4.13;;;;;;;23.02;57.93;98222.41;4932255;29;20228;-66
2022/08/21 09:23:50;;;;;;;7.70;3.87;;;;;;;22.99;60.34;98220.91;4932138;29;20233;-66
2022/08/21 09:26:20;;;;;;;4.87;3.70;;;;;;;23.22;55.52;98223.63;4937609;29;20319;-66
2022/08/21 09:28:53;;;;;;;6.20;4.03;;;;;;;23.22;55.39;98218.25;4937497;29;20264;-65
2022/08/21 09:31:26;;;;;;;5.47;3.73;;;;;;;23.17;55.77;98216.06;4931724;29;20256;-66
2022/08/21 09:33:58;;;;;;;5.33;3.47;;;;;;;23.22;53.99;98213.66;4937397;29;20233;-66
2022/08/21 09:36:32;;;;;;;6.33;3.77;;;;;;;23.27;55.63;98211.25;4937461;29;20232;-67
2022/08/21 09:38:58;;;;;;;5.57;3.57;;;;;;;23.45;53.21;98219.84;4937318;29;20754;-66
2022/08/21 09:41:30;;;;;;;4.57;3.50;;;;;;;23.42;52.29;98214.81;4937139;29;20232;-66
2022/08/21 09:43:58;;;;;;;6.53;3.37;;;;;;;23.29;53.01;98209.22;4936881;29;20239;-66
2022/08/21 09:46:27;;;;;;;5.63;3.70;;;;;;;23.29;53.49;98209.22;4937276;29;20287;-65
2022/08/21 09:48:57;;;;;;;4.10;3.40;;;;;;;23.34;55.15;98206.81;4937222;29;20242;-66
2022/08/21 09:51:26;;;;;;;4.23;3.50;;;;;;;23.53;56.15;98202.75;4935912;29;20232;-66
2022/08/21 09:53:57;;;;;;;4.60;3.83;;;;;;;23.62;55.79;98202.47;4929680;29;20279;-66
2022/08/21 09:59:21;;;;;;;6.17;3.47;;;;;;;23.86;51.18;98196.78;4934205;29;20255;-67
2022/08/21 10:01:51;;;;;;;5.63;3.27;;;;;;;23.96;51.37;98191.94;4929930;29;20292;-66
2022/08/21 10:04:22;;;;;;;6.37;3.67;;;;;;;23.91;50.21;98193.56;4926947;29;20239;-66
2022/08/21 10:06:49;;;;;;;4.93;3.30;;;;;;;23.87;50.94;98198.50;4936849;29;20234;-67
2022/08/21 10:09:19;;;;;;;3.67;2.87;;;;;;;23.91;53.53;98189.00;4935408;29;20617;-67
2022/08/21 10:11:58;;;;;;;4.30;3.17;;;;;;;24.08;55.41;98190.44;4936927;29;20228;-66
2022/08/21 10:14:44;;;;;;;3.77;3.30;;;;;;;24.24;55.27;98190.22;4936757;29;20273;-67
2022/08/21 10:17:18;;;;;;;5.57;3.73;;;;;;;24.20;51.58;98183.53;4935189;29;20292;-67
2022/08/21 10:19:53;;;;;;;5.47;3.77;;;;;;;24.25;53.34;98181.09;4934661;29;20248;-67
2022/08/21 10:22:33;;;;;;;4.60;3.60;;;;;;;24.31;54.43;98180.34;4932017;29;20235;-67
2022/08/21 10:25:09;;;;;;;6.33;3.80;;;;;;;24.49;53.70;98183.44;4933476;29;20287;-67
2022/08/21 10:27:44;;;;;;;5.60;3.73;;;;;;;24.51;54.44;98170.56;4936699;29;20286;-67
2022/08/21 10:30:15;;;;;;;4.10;3.67;;;;;;;24.74;54.08;98176.66;4936221;29;20232;-67
2022/08/21 10:33:00;;;;;;;7.23;3.70;;;;;;;24.78;54.38;98172.56;4935447;29;20247;-66
2022/08/21 10:35:32;;;;;;;5.73;3.67;;;;;;;24.82;55.30;98168.41;4931489;29;20589;-67
2022/08/21 10:38:38;;;;;;;5.20;3.80;;;;;;;24.91;52.38;98166.41;4936215;29;20227;-67
2022/08/21 10:41:14;;;;;;;4.50;3.30;;;;;;;24.97;51.95;98165.63;4908848;29;20283;-66
2022/08/21 10:43:51;;;;;;;7.13;3.27;;;;;;;25.08;51.87;98162.41;4936477;29;20279;-68
2022/08/21 10:46:29;;;;;;;5.87;3.70;;;;;;;25.09;49.53;98159.50;4936578;29;20231;-65
2022/08/21 10:48:59;;;;;;;5.50;3.30;;;;;;;25.09;50.23;98164.91;4929070;29;20223;-65
2022/08/21 10:51:38;;;;;;;5.23;3.47;;;;;;;25.12;48.59;98166.41;4933620;29;20511;-65
2022/08/21 10:54:12;;;;;;;5.37;3.33;;;;;;;25.07;47.75;98160.75;4936566;29;20311;-66
2022/08/21 10:56:42;;;;;;;4.63;3.23;;;;;;;25.09;49.51;98159.50;4935051;29;20590;-65
2022/08/21 10:59:27;;;;;;;4.33;2.90;;;;;;;25.12;49.59;98152.88;4936414;29;20270;-65
2022/08/21 11:02:00;;;;;;;6.80;3.20;;;;;;;25.21;50.14;98157.94;4929029;29;20232;-64
2022/08/21 11:04:33;;;;;;;5.27;3.67;;;;;;;25.36;50.05;98155.16;4936398;29;20233;-65
2022/08/21 11:07:04;;;;;;;5.47;3.63;;;;;;;25.39;47.37;98158.31;4936410;29;20303;-65
2022/08/21 11:09:31;;;;;;;6.63;3.40;;;;;;;25.37;48.54;98154.94;4936164;29;20224;-65
2022/08/21 11:12:04;;;;;;;5.73;3.70;;;;;;;25.37;47.06;98148.72;4935622;29;20646;-65
2022/08/21 11:14:39;;;;;;;4.10;3.20;;;;;;;25.07;46.04;98142.66;4928821;29;20674;-68
2022/08/21 11:17:10;;;;;;;4.63;3.70;;;;;;;25.04;46.94;98143.03;4929776;29;21130;-66
2022/08/21 11:19:45;;;;;;;5.03;3.43;;;;;;;25.12;47.65;98137.47;4931107;29;20240;-65
2022/08/21 11:22:16;;;;;;;5.67;3.40;;;;;;;25.28;47.74;98139.91;4935155;29;20267;-65
2022/08/21 11:24:51;;;;;;;4.20;3.20;;;;;;;25.29;47.96;98141.56;4936186;29;20292;-66
2022/08/21 11:27:25;;;;;;;6.33;3.53;;;;;;;25.35;47.01;98134.56;4927866;29;20299;-66
2022/08/21 11:29:55;;;;;;;5.23;3.07;;;;;;;25.40;46.17;98130.22;4934819;29;20315;-65
2022/08/21 11:32:50;;;;;;;4.73;3.23;;;;;;;25.35;44.93;98132.66;4936162;29;20581;-65
2022/08/21 11:35:29;;;;;;;5.50;3.00;;;;;;;25.18;44.96;98133.97;4931766;29;20236;-66
2022/08/21 11:38:06;;;;;;;4.03;3.20;;;;;;;25.21;44.73;98133.59;4935043;29;20235;-66
2022/08/21 11:40:49;;;;;;;4.63;3.20;;;;;;;25.25;44.79;98134.91;4936230;29;20233;-65